Time;durP1;ratioP1;P1;durP2;ratioP2;P2;SDS_P1;SDS_P2;PMS_P1;PMS_P2;Temp;Humidity;BMP_temperature;BMP_pressure;BME280_temperature;BME280_humidity;BME280_pressure;Samples;Min_cycle;Max_cycle;Signal;HPM_P1;HPM_P2
2022/12/13 00:01:40;;;;;;;25.92;15.63;;;;;;;-2.05;64.67;99919.25;5083033;28;20056;-62
2022/12/13 00:04:11;;;;;;;24.73;15.40;;;;;;;-2.12;64.28;99913.09;5072776;28;20049;-62
2022/12/13 00:06:38;;;;;;;27.95;16.15;;;;;;;-2.16;65.07;99912.78;5074403;28;20055;-62
2022/12/13 00:09:07;;;;;;;27.05;14.52;;;;;;;-2.16;64.11;99915.50;5074129;28;20512;-62
2022/12/13 00:11:36;;;;;;;23.77;13.95;;;;;;;-2.15;64.04;99913.59;5083218;28;20056;-61
2022/12/13 00:14:03;;;;;;;24.17;14.43;;;;;;;-2.28;65.04;99901.09;5073538;28;20386;-61
2022/12/13 00:16:31;;;;;;;23.13;13.48;;;;;;;-2.23;64.01;99903.91;5077156;28;20051;-62
2022/12/13 00:19:00;;;;;;;23.98;14.35;;;;;;;-2.16;64.81;99901.03;5074493;28;20053;-62
2022/12/13 00:21:31;;;;;;;25.85;14.30;;;;;;;-2.20;65.12;99902.63;5085162;28;20049;-62
2022/12/13 00:24:00;;;;;;;25.63;14.63;;;;;;;-2.20;65.04;99900.69;5073851;28;20056;-62
2022/12/13 00:26:32;;;;;;;25.00;14.77;;;;;;;-2.23;64.22;99901.19;5076160;28;20515;-62
2022/12/13 00:28:59;;;;;;;24.88;14.43;;;;;;;-2.21;64.13;99912.66;5077911;28;20494;-62
2022/12/13 00:31:28;;;;;;;25.52;14.57;;;;;;;-2.27;64.09;99909.03;5075289;28;20056;-62
2022/12/13 00:33:55;;;;;;;24.13;14.43;;;;;;;-2.34;63.84;99910.25;5071187;28;20048;-61
2022/12/13 00:36:23;;;;;;;23.08;14.35;;;;;;;-2.41;63.56;99909.56;5086735;28;20396;-61
2022/12/13 00:38:59;;;;;;;23.35;13.60;;;;;;;-2.37;64.39;99903.38;5080922;28;20055;-62
2022/12/13 00:41:28;;;;;;;23.00;13.73;;;;;;;-2.30;63.57;99890.41;5091318;28;20052;-62
2022/12/13 00:43:56;;;;;;;24.98;13.55;;;;;;;-2.32;64.57;99894.47;5075022;28;20056;-62
2022/12/13 00:46:27;;;;;;;26.55;15.38;;;;;;;-2.35;63.77;99897.66;5074795;28;20056;-62
2022/12/13 00:48:56;;;;;;;23.50;14.30;;;;;;;-2.36;64.13;99890.56;5074469;28;20415;-62
2022/12/13 00:51:24;;;;;;;21.83;13.15;;;;;;;-2.39;64.16;99888.31;5074229;28;20481;-62
2022/12/13 00:53:53;;;;;;;25.40;14.68;;;;;;;-2.46;64.43;99889.31;5074387;28;20400;-62
2022/12/13 00:56:25;;;;;;;24.58;14.57;;;;;;;-2.52;64.20;99887.56;5073664;28;20378;-62
2022/12/13 00:58:54;;;;;;;23.25;14.30;;;;;;;-2.49;64.15;99887.06;5072407;28;20064;-62
2022/12/13 01:01:23;;;;;;;23.50;14.70;;;;;;;-2.49;63.60;99892.50;5074491;28;20053;-62
2022/12/13 01:03:51;;;;;;;24.73;15.32;;;;;;;-2.60;63.48;99879.75;5074539;28;20052;-61
2022/12/13 01:06:21;;;;;;;25.52;13.88;;;;;;;-2.55;63.81;99879.84;5073209;28;20068;-61
2022/12/13 01:08:49;;;;;;;24.95;14.00;;;;;;;-2.58;63.63;99877.63;5073315;28;20308;-62
2022/12/13 01:11:19;;;;;;;23.98;13.52;;;;;;;-2.57;63.41;99878.44;5073606;28;20389;-61
2022/12/13 01:13:46;;;;;;;23.95;14.57;;;;;;;-2.62;64.32;99887.34;5073281;28;20063;-62
2022/12/13 01:16:13;;;;;;;26.70;14.07;;;;;;;-2.64;64.48;99880.50;5073406;28;20060;-61
2022/12/13 01:18:42;;;;;;;22.23;13.38;;;;;;;-2.70;63.62;99879.56;5074128;28;20055;-62
2022/12/13 01:21:12;;;;;;;20.65;12.73;;;;;;;-2.68;64.16;99880.13;5073602;28;20052;-62
2022/12/13 01:23:40;;;;;;;25.30;13.45;;;;;;;-2.68;64.52;99880.97;5073789;28;20055;-62
2022/12/13 01:26:13;;;;;;;23.63;13.98;;;;;;;-2.66;64.34;99886.19;5072779;28;20048;-62
2022/12/13 01:28:42;;;;;;;25.50;14.10;;;;;;;-2.78;63.60;99888.09;5073535;28;20056;-62
2022/12/13 01:31:11;;;;;;;17.80;10.63;;;;;;;-2.73;63.81;99893.66;5070853;28;20497;-62
2022/12/13 01:33:39;;;;;;;23.20;13.05;;;;;;;-2.72;63.81;99895.31;5073599;28;20052;-62
2022/12/13 01:36:14;;;;;;;21.15;12.38;;;;;;;-2.79;64.02;99891.88;5073067;28;20052;-62
2022/12/13 01:38:42;;;;;;;23.30;14.05;;;;;;;-2.81;63.38;99894.03;5073348;28;20405;-62
2022/12/13 01:41:14;;;;;;;22.00;13.27;;;;;;;-2.79;64.02;99897.34;5087848;28;20062;-61
2022/12/13 01:43:59;;;;;;;20.90;13.75;;;;;;;-2.84;63.12;99898.06;5093193;28;20071;-62
2022/12/13 01:46:29;;;;;;;23.20;14.23;;;;;;;-2.82;63.38;99887.75;5093658;28;20067;-62
2022/12/13 01:49:00;;;;;;;;;;;;;;;-2.84;63.76;99902.69;5094149;28;20044;-62
2022/12/13 01:51:32;;;;;;;23.65;13.60;;;;;;;-2.84;63.92;99902.69;5093579;28;19927;-62
2022/12/13 01:54:03;;;;;;;23.33;14.45;;;;;;;-2.88;63.37;99903.19;5092745;28;20055;-62
2022/12/13 01:56:35;;;;;;;24.15;14.68;;;;;;;-2.92;63.41;99899.28;5092737;28;20077;-62
2022/12/13 01:59:06;;;;;;;21.92;12.98;;;;;;;-2.89;63.13;99897.97;5092581;28;20055;-61
2022/12/13 02:01:34;;;;;;;21.52;12.68;;;;;;;-2.91;63.84;99900.91;5093181;28;20067;-62
2022/12/13 02:04:01;;;;;;;23.27;13.43;;;;;;;-2.94;63.31;99898.69;5092408;28;20070;-61
2022/12/13 02:06:33;;;;;;;21.55;13.38;;;;;;;-2.89;62.92;99889.78;5093049;28;20052;-62
2022/12/13 02:09:02;;;;;;;23.15;13.80;;;;;;;-2.90;63.29;99893.56;5092902;28;20063;-61
2022/12/13 02:11:30;;;;;;;23.58;13.18;;;;;;;-2.97;64.11;99895.59;5091072;28;20052;-62
2022/12/13 02:13:57;;;;;;;22.92;13.00;;;;;;;-2.91;63.12;99894.66;5092625;28;20059;-61
2022/12/13 02:16:38;;;;;;;23.55;13.80;;;;;;;-2.92;63.67;99888.38;5092315;28;20396;-62
2022/12/13 02:19:55;;;;;;;23.23;13.30;;;;;;;-2.89;62.84;99892.50;5090912;28;20051;-62
2022/12/13 02:22:44;;;;;;;21.42;13.32;;;;;;;-2.93;62.86;99892.16;5092718;28;20476;-62
2022/12/13 02:25:36;;;;;;;26.52;14.23;;;;;;;-2.88;62.67;99894.16;5092799;28;20048;-62
2022/12/13 02:28:21;;;;;;;21.67;11.88;;;;;;;-2.92;62.90;99891.09;5092266;28;20118;-61
2022/12/13 02:30:52;;;;;;;22.63;13.15;;;;;;;-2.94;62.85;99895.13;5092290;28;20063;-62
2022/12/13 02:33:39;;;;;;;21.73;13.15;;;;;;;-3.00;62.59;99896.06;5092356;28;20062;-62
2022/12/13 02:36:13;;;;;;;23.08;13.93;;;;;;;-3.01;63.19;99889.81;5092275;28;20056;-62
2022/12/13 02:38:49;;;;;;;21.85;13.98;;;;;;;-2.98;63.86;99889.34;5092701;28;20059;-62
2022/12/13 02:41:25;;;;;;;24.38;12.57;;;;;;;-3.12;63.97;99887.94;5071967;28;20053;-62
2022/12/13 02:43:57;;;;;;;23.52;13.15;;;;;;;-3.12;63.39;99891.47;5076347;28;20052;-62
2022/12/13 02:46:29;;;;;;;24.27;13.98;;;;;;;-3.14;63.51;99890.06;5092713;28;20389;-62
2022/12/13 02:48:58;;;;;;;21.13;12.77;;;;;;;-3.21;63.26;99884.75;5092672;28;20048;-62
2022/12/13 02:51:27;;;;;;;22.60;13.15;;;;;;;-3.17;63.93;99888.66;5091783;28;20048;-62
2022/12/13 02:53:55;;;;;;;23.73;13.73;;;;;;;-3.15;63.00;99883.78;5091018;28;20044;-62
2022/12/13 02:56:22;;;;;;;25.67;14.77;;;;;;;-3.24;63.34;99885.22;5091108;28;20059;-62
2022/12/13 02:58:52;;;;;;;21.02;12.90;;;;;;;-3.12;63.15;99879.75;5091866;28;20044;-62
2022/12/13 03:01:39;;;;;;;28.25;13.65;;;;;;;-3.12;63.83;99877.84;5091627;28;20055;-62
2022/12/13 03:04:13;;;;;;;19.23;12.20;;;;;;;-3.09;63.40;99873.81;5092415;28;20055;-61
2022/12/13 03:06:51;;;;;;;22.45;13.02;;;;;;;-3.11;63.07;99873.22;5092370;28;20052;-62
2022/12/13 03:09:31;;;;;;;24.70;13.48;;;;;;;-3.15;63.21;99882.94;5091739;28;20047;-62
2022/12/13 03:15:01;;;;;;;21.45;12.93;;;;;;;-3.37;63.36;99880.00;5098384;28;20079;-62
2022/12/13 03:17:37;;;;;;;23.65;14.35;;;;;;;-3.32;63.23;99893.72;5092681;28;20055;-62
2022/12/13 03:20:07;;;;;;;24.52;14.60;;;;;;;-3.27;63.36;99881.06;5092113;28;20048;-62
2022/12/13 03:22:35;;;;;;;25.35;14.82;;;;;;;-3.27;63.22;99885.69;5092610;28;20067;-62
2022/12/13 03:25:02;;;;;;;24.38;14.27;;;;;;;-3.49;63.18;99882.72;5091348;28;20070;-61
2022/12/13 03:27:29;;;;;;;22.92;14.35;;;;;;;-3.41;63.11;99892.44;5092416;28;20052;-62
2022/12/13 03:29:58;;;;;;;25.08;13.65;;;;;;;-3.39;63.58;99893.03;5093742;28;20048;-62
2022/12/13 03:32:25;;;;;;;22.58;13.15;;;;;;;-3.36;63.79;99887.09;5096588;28;20051;-62
2022/12/13 03:34:54;;;;;;;25.67;14.75;;;;;;;-3.34;63.36;99887.69;5096595;28;20056;-62
2022/12/13 03:37:22;;;;;;;24.52;13.93;;;;;;;-3.32;63.25;99883.69;5096539;28;20397;-62
2022/12/13 03:39:49;;;;;;;27.00;15.55;;;;;;;-3.35;63.73;99884.16;5099286;28;20044;-62
2022/12/13 03:42:17;;;;;;;25.42;14.88;;;;;;;-3.39;63.85;99882.16;5116546;28;20059;-61
2022/12/13 03:44:44;;;;;;;27.65;14.70;;;;;;;-3.36;63.33;99874.34;5115992;28;20071;-62
2022/12/13 03:47:12;;;;;;;23.50;13.95;;;;;;;-3.32;63.21;99880.13;5107573;28;20054;-62
2022/12/13 03:49:39;;;;;;;24.05;14.32;;;;;;;-3.57;63.45;99873.03;5116228;28;20054;-62
2022/12/13 03:52:08;;;;;;;22.40;12.93;;;;;;;-3.45;63.89;99877.66;5115682;28;20411;-62
2022/12/13 03:54:35;;;;;;;24.85;14.00;;;;;;;-3.42;63.03;99878.00;5111033;28;20487;-61
2022/12/13 03:57:02;;;;;;;26.42;15.10;;;;;;;-3.44;63.01;99871.97;5116176;28;20472;-62
2022/12/13 03:59:30;;;;;;;24.80;14.68;;;;;;;-3.43;63.50;99876.34;5115828;28;20051;-62
2022/12/13 04:02:00;;;;;;;25.25;13.73;;;;;;;-3.40;62.81;99866.88;5116105;28;20492;-60
2022/12/13 04:04:27;;;;;;;;;;;;;;;-3.44;63.58;99862.94;5098639;28;20519;-60
2022/12/13 04:06:54;;;;;;;22.08;13.07;;;;;;;-3.41;63.79;99863.31;5095638;28;19920;-60
2022/12/13 04:09:23;;;;;;;22.48;13.02;;;;;;;-3.33;63.84;99859.41;5110492;28;20058;-60
2022/12/13 04:14:34;;;;;;;22.75;13.45;;;;;;;-3.39;63.79;99861.19;5122041;28;20408;-60
2022/12/13 04:17:02;;;;;;;25.98;14.63;;;;;;;-3.39;63.61;99866.63;5115343;28;20059;-60
2022/12/13 04:19:29;;;;;;;22.08;13.85;;;;;;;-3.42;63.70;99867.13;5115459;28;20055;-59
2022/12/13 04:21:56;;;;;;;21.23;13.00;;;;;;;-3.32;63.28;99863.78;5116009;28;20059;-60
2022/12/13 04:24:25;;;;;;;22.70;13.48;;;;;;;-3.31;63.50;99868.19;5113366;28;20059;-60
2022/12/13 04:26:52;;;;;;;21.90;13.70;;;;;;;-3.38;64.03;99862.84;5115650;28;20444;-59
2022/12/13 04:29:20;;;;;;;23.98;13.98;;;;;;;-3.33;63.58;99862.97;5115250;28;20054;-59
2022/12/13 04:31:47;;;;;;;26.38;14.93;;;;;;;-3.40;63.21;99864.13;5115505;28;20051;-60
2022/12/13 04:34:15;;;;;;;26.38;14.68;;;;;;;-3.51;63.66;99871.25;5114968;28;20055;-60
2022/12/13 04:36:42;;;;;;;22.50;13.55;;;;;;;-3.50;63.90;99876.47;5113436;28;20415;-60
2022/12/13 04:39:09;;;;;;;25.33;14.98;;;;;;;-3.52;62.99;99866.88;5097763;28;20052;-60
2022/12/13 04:41:39;;;;;;;22.77;13.70;;;;;;;-3.42;63.03;99863.53;5093753;28;20376;-60
2022/12/13 04:44:08;;;;;;;23.08;13.50;;;;;;;-3.51;62.74;99866.66;5094796;28;20059;-59
2022/12/13 04:46:35;;;;;;;27.60;14.57;;;;;;;-3.60;62.41;99869.94;5083394;28;20052;-60
2022/12/13 04:49:02;;;;;;;21.02;12.88;;;;;;;-3.63;62.40;99860.38;5074568;28;20484;-59
2022/12/13 04:51:30;;;;;;;25.15;14.65;;;;;;;-3.61;62.18;99862.84;5071455;28;20056;-60
2022/12/13 04:53:57;;;;;;;26.05;13.68;;;;;;;-3.64;61.91;99866.03;5073936;28;20417;-60
2022/12/13 04:56:24;;;;;;;22.50;12.95;;;;;;;-3.59;62.13;99868.88;5073360;28;20537;-59
2022/12/13 04:58:55;;;;;;;24.33;14.25;;;;;;;-3.68;62.55;99860.25;5073882;28;20060;-60
2022/12/13 05:01:22;;;;;;;23.33;13.70;;;;;;;-3.80;62.20;99860.25;5073002;28;20405;-59
2022/12/13 05:03:50;;;;;;;25.00;14.20;;;;;;;-3.85;62.08;99853.84;5073908;28;20409;-59
2022/12/13 05:06:17;;;;;;;21.67;12.57;;;;;;;-3.88;62.01;99847.81;5070413;28;20055;-60
2022/12/13 05:08:45;;;;;;;26.77;14.10;;;;;;;-3.77;61.86;99848.06;5074215;28;20052;-60
2022/12/13 05:11:12;;;;;;;26.20;13.55;;;;;;;-3.70;62.18;99835.97;5073839;28;20056;-60
2022/12/13 05:13:40;;;;;;;20.95;12.85;;;;;;;-3.72;61.63;99845.44;5073476;28;20052;-60
2022/12/13 05:16:14;;;;;;;24.25;13.23;;;;;;;-3.85;61.90;99846.50;5072560;28;20040;-59
2022/12/13 05:18:42;;;;;;;23.58;13.57;;;;;;;-4.00;61.79;99840.69;5073492;28;20065;-60
2022/12/13 05:21:13;;;;;;;23.95;14.02;;;;;;;-4.03;62.19;99838.44;5073952;28;20063;-60
2022/12/13 05:23:41;;;;;;;22.15;12.75;;;;;;;-4.03;62.10;99833.00;5074024;28;20059;-60
2022/12/13 05:26:08;;;;;;;23.60;13.02;;;;;;;-3.93;62.04;99838.69;5073392;28;20060;-60
2022/12/13 05:28:35;;;;;;;22.98;12.82;;;;;;;-4.03;62.18;99833.00;5072828;28;20048;-60
2022/12/13 05:31:07;;;;;;;24.83;13.18;;;;;;;-4.00;61.98;99833.34;5072257;28;20063;-60
2022/12/13 05:33:36;;;;;;;23.48;14.30;;;;;;;-4.01;61.93;99822.69;5073343;28;20053;-60
2022/12/13 05:36:05;;;;;;;23.15;14.20;;;;;;;-4.09;62.04;99824.72;5073514;28;20060;-59
2022/12/13 05:38:32;;;;;;;26.08;13.55;;;;;;;-4.05;62.23;99819.66;5072707;28;20535;-60
2022/12/13 05:40:59;;;;;;;24.77;13.55;;;;;;;-4.06;62.48;99822.59;5086243;28;20055;-60
2022/12/13 05:43:32;;;;;;;24.15;14.90;;;;;;;-4.12;62.38;99818.91;5093166;28;20484;-60
2022/12/13 05:45:59;;;;;;;25.58;14.85;;;;;;;-4.15;62.64;99820.22;5092050;28;20056;-60
2022/12/13 05:48:29;;;;;;;22.80;13.75;;;;;;;-4.17;62.29;99816.91;5093577;28;20420;-60
2022/12/13 05:50:57;;;;;;;25.05;14.13;;;;;;;-4.17;62.78;99816.06;5085603;28;20063;-60
2022/12/13 05:53:24;;;;;;;23.40;12.77;;;;;;;-4.23;62.56;99817.00;5087096;28;20052;-60
2022/12/13 05:55:55;;;;;;;26.58;15.05;;;;;;;-4.25;62.56;99819.94;5092010;28;20404;-59
2022/12/13 05:58:22;;;;;;;28.95;16.70;;;;;;;-4.17;62.45;99825.06;5095025;28;20056;-61
2022/12/13 06:00:50;;;;;;;26.63;15.45;;;;;;;-4.21;62.80;99826.59;5091541;28;20044;-60
2022/12/13 06:03:17;;;;;;;28.55;16.40;;;;;;;-4.18;62.77;99822.56;5093267;28;20428;-60
2022/12/13 06:05:44;;;;;;;38.40;21.67;;;;;;;-4.24;62.77;99818.06;5091389;28;20052;-61
2022/12/13 06:08:13;;;;;;;25.50;15.38;;;;;;;-4.11;62.44;99826.03;5093258;28;20077;-60
2022/12/13 06:10:40;;;;;;;24.92;13.38;;;;;;;-4.11;62.71;99824.13;5089133;28;20044;-60
2022/12/13 06:13:07;;;;;;;25.27;14.65;;;;;;;-4.18;62.28;99822.56;5092607;28;20052;-60
2022/12/13 06:15:35;;;;;;;23.20;14.20;;;;;;;-4.15;62.16;99813.94;5092044;28;20392;-60
2022/12/13 06:18:02;;;;;;;25.25;14.60;;;;;;;-4.21;62.38;99826.59;5093076;28;20070;-60
2022/12/13 06:20:29;;;;;;;27.45;15.30;;;;;;;-4.28;62.37;99820.44;5090763;28;20507;-60
2022/12/13 06:22:58;;;;;;;29.25;16.23;;;;;;;-4.41;62.33;99831.50;5092685;28;20063;-60
2022/12/13 06:25:30;;;;;;;24.60;14.25;;;;;;;-4.42;62.61;99836.09;5090304;28;20075;-60
2022/12/13 06:27:57;;;;;;;30.17;16.85;;;;;;;-4.46;62.49;99839.53;5088219;28;20047;-62
2022/12/13 06:30:25;;;;;;;31.52;15.55;;;;;;;-4.41;62.45;99834.22;5091614;28;20488;-60
2022/12/13 06:32:52;;;;;;;29.50;16.00;;;;;;;-4.47;62.31;99835.97;5092786;28;20071;-60
2022/12/13 06:35:19;;;;;;;26.60;15.18;;;;;;;-4.56;62.69;99848.22;5092036;28;20052;-60
2022/12/13 06:37:46;;;;;;;30.38;16.25;;;;;;;-4.56;62.45;99835.44;5092523;28;20075;-60
2022/12/13 06:40:13;;;;;;;28.27;15.73;;;;;;;-4.58;62.22;99832.13;5092103;28;20052;-60
2022/12/13 06:42:42;;;;;;;27.88;15.85;;;;;;;-4.60;62.48;99839.72;5090423;28;20056;-60
2022/12/13 06:45:10;;;;;;;31.85;15.88;;;;;;;-4.58;62.29;99843.00;5091305;28;20056;-60
2022/12/13 06:47:37;;;;;;;26.75;15.98;;;;;;;-4.58;62.29;99837.56;5092656;28;20357;-60
2022/12/13 06:50:05;;;;;;;28.30;16.42;;;;;;;-4.59;62.14;99829.66;5091228;28;20416;-60
2022/12/13 06:52:33;;;;;;;28.95;16.42;;;;;;;-4.57;62.47;99838.41;5090212;28;20048;-59
2022/12/13 06:55:00;;;;;;;28.60;14.88;;;;;;;-4.53;62.07;99824.13;5092338;28;20055;-60
2022/12/13 06:57:27;;;;;;;26.02;14.48;;;;;;;-4.45;61.92;99824.84;5091662;28;20477;-60
2022/12/13 06:59:56;;;;;;;25.52;14.13;;;;;;;-4.43;61.87;99834.47;5091716;28;20048;-60
2022/12/13 07:02:23;;;;;;;26.52;14.57;;;;;;;-4.39;61.87;99832.94;5088291;28;20074;-60
2022/12/13 07:04:51;;;;;;;24.10;14.75;;;;;;;-4.39;61.79;99829.38;5090819;28;20059;-59
2022/12/13 07:07:18;;;;;;;29.00;14.75;;;;;;;-4.59;61.89;99830.50;5091644;28;20056;-59
2022/12/13 07:09:45;;;;;;;24.33;13.98;;;;;;;-4.61;62.04;99829.91;5091106;28;20047;-59
2022/12/13 07:12:13;;;;;;;26.73;14.52;;;;;;;-4.74;62.04;99836.34;5092468;28;20060;-60
2022/12/13 07:14:40;;;;;;;25.25;13.98;;;;;;;-4.67;62.11;99838.16;5090419;28;20043;-59
2022/12/13 07:17:09;;;;;;;24.42;14.07;;;;;;;-4.80;62.66;99828.28;5091565;28;20059;-59
2022/12/13 07:19:36;;;;;;;22.58;12.40;;;;;;;-4.72;62.36;99836.13;5091245;28;20345;-60
2022/12/13 07:22:05;;;;;;;23.30;12.48;;;;;;;-4.70;62.76;99834.81;5088438;28;20051;-59
2022/12/13 07:24:32;;;;;;;21.15;12.18;;;;;;;-4.56;62.48;99835.44;5087907;28;20052;-60
2022/12/13 07:26:59;;;;;;;23.23;13.30;;;;;;;-4.53;62.04;99832.28;5086505;28;20048;-60
2022/12/13 07:29:26;;;;;;;26.05;14.05;;;;;;;-4.59;62.28;99844.06;5088014;28;20047;-60
2022/12/13 07:31:54;;;;;;;25.98;13.95;;;;;;;-4.61;62.32;99840.75;5091944;28;20044;-60
2022/12/13 07:34:22;;;;;;;21.85;13.90;;;;;;;-4.59;62.07;99844.06;5091676;28;20479;-59
2022/12/13 07:36:50;;;;;;;24.90;13.82;;;;;;;-4.57;61.98;99841.97;5091935;28;20059;-60
2022/12/13 07:39:17;;;;;;;28.10;14.48;;;;;;;-4.60;61.91;99842.44;5092460;28;20056;-60
2022/12/13 07:41:45;;;;;;;24.30;12.55;;;;;;;-4.50;62.08;99841.88;5091073;28;20075;-60
2022/12/13 07:44:12;;;;;;;25.33;14.27;;;;;;;-4.54;62.05;99841.50;5091773;28;20072;-60
2022/12/13 07:46:40;;;;;;;23.40;14.02;;;;;;;-4.47;62.16;99838.69;5091867;28;20484;-60
2022/12/13 07:49:07;;;;;;;25.70;13.70;;;;;;;-4.37;62.06;99838.13;5092288;28;20059;-60
2022/12/13 07:51:35;;;;;;;24.00;13.27;;;;;;;-4.36;62.10;99834.34;5091832;28;20067;-60
2022/12/13 07:54:03;;;;;;;26.73;13.07;;;;;;;-4.42;61.81;99841.53;5091988;28;20052;-60
2022/12/13 07:56:30;;;;;;;25.95;14.43;;;;;;;-4.35;61.88;99838.72;5091299;28;20416;-60
2022/12/13 07:58:57;;;;;;;27.42;13.77;;;;;;;-4.23;62.00;99833.31;5092276;28;20044;-60
2022/12/13 08:01:25;;;;;;;25.08;13.93;;;;;;;-4.13;61.25;99839.84;5091872;28;20043;-59
2022/12/13 08:03:52;;;;;;;25.73;14.40;;;;;;;-4.17;61.30;99844.09;5091899;28;20063;-60
2022/12/13 08:06:19;;;;;;;25.42;16.02;;;;;;;-4.35;61.31;99836.00;5091730;28;20496;-60
2022/12/13 08:08:49;;;;;;;25.83;15.45;;;;;;;-4.22;61.48;99841.25;5091863;28;20056;-60
2022/12/13 08:11:17;;;;;;;25.80;14.73;;;;;;;-4.14;61.37;99843.59;5091309;28;20055;-61
2022/12/13 08:13:44;;;;;;;21.73;12.23;;;;;;;-4.04;61.12;99840.31;5091115;28;20056;-60
2022/12/13 08:16:16;;;;;;;23.33;13.55;;;;;;;-3.92;61.32;99840.34;5091597;28;20063;-59
2022/12/13 08:18:44;;;;;;;23.08;13.00;;;;;;;-3.55;60.74;99851.00;5094774;28;20082;-60
2022/12/13 08:21:11;;;;;;;21.70;13.77;;;;;;;-1.74;58.68;99844.19;5095215;28;20043;-60
2022/12/13 08:23:39;;;;;;;19.13;11.73;;;;;;;0.73;54.60;99829.34;5094418;28;20059;-60
2022/12/13 08:26:08;;;;;;;21.77;11.77;;;;;;;3.08;49.56;99819.72;5095011;28;20484;-60
2022/12/13 08:28:36;;;;;;;22.40;13.35;;;;;;;4.49;46.06;99814.66;5094596;28;20048;-61
2022/12/13 08:31:05;;;;;;;21.55;13.93;;;;;;;5.92;41.35;99812.09;5095041;28;20052;-60
2022/12/13 08:33:33;;;;;;;19.80;13.98;;;;;;;7.35;38.00;99807.91;5093866;28;20075;-61
2022/12/13 08:36:08;;;;;;;21.05;13.88;;;;;;;8.42;36.38;99805.47;5094276;28;20063;-60
2022/12/13 08:38:35;;;;;;;19.75;13.10;;;;;;;9.84;34.14;99812.84;5095163;28;20052;-61
2022/12/13 08:41:02;;;;;;;18.73;14.88;;;;;;;10.45;32.76;99804.50;5107050;28;20048;-61
2022/12/13 08:43:31;;;;;;;22.23;15.45;;;;;;;11.10;31.89;99801.72;5114835;28;20051;-60
2022/12/13 08:45:58;;;;;;;18.60;13.60;;;;;;;12.12;30.22;99797.81;5111638;28;20059;-61
2022/12/13 08:48:25;;;;;;;20.25;16.23;;;;;;;12.83;28.58;99798.75;5114605;28;20044;-60
2022/12/13 08:50:53;;;;;;;17.45;13.55;;;;;;;13.59;28.51;99797.31;5115119;28;20066;-59
2022/12/13 08:53:20;;;;;;;20.73;15.63;;;;;;;14.10;27.88;99799.66;5115017;28;20051;-61
2022/12/13 08:55:47;;;;;;;21.08;16.98;;;;;;;14.57;26.18;99807.44;5114533;28;20059;-61
2022/12/13 08:58:14;;;;;;;22.10;16.83;;;;;;;14.90;25.13;99808.31;5115069;28;20052;-59
2022/12/13 09:00:45;;;;;;;18.60;15.88;;;;;;;15.80;24.73;99802.94;5112021;28;20048;-60
2022/12/13 09:03:12;;;;;;;24.10;21.20;;;;;;;16.66;24.09;99801.13;5115098;28;20047;-60
2022/12/13 09:05:39;;;;;;;21.90;19.38;;;;;;;17.23;23.35;99805.00;5111234;28;20048;-60
2022/12/13 09:08:06;;;;;;;20.73;16.75;;;;;;;17.81;22.59;99804.72;5113815;28;20051;-60
2022/12/13 09:10:34;;;;;;;17.75;15.85;;;;;;;18.13;22.58;99790.28;5093906;28;20064;-60
2022/12/13 09:13:01;;;;;;;20.50;15.85;;;;;;;18.42;22.30;99805.56;5094270;28;20056;-60
2022/12/13 09:15:29;;;;;;;18.42;16.25;;;;;;;18.79;21.19;99804.00;5106366;28;20052;-60
2022/12/13 09:17:58;;;;;;;19.20;17.05;;;;;;;19.15;20.84;99813.66;5114282;28;20058;-60
2022/12/13 09:20:26;;;;;;;16.60;14.45;;;;;;;19.51;20.15;99808.31;5114185;28;20052;-61
2022/12/13 09:22:54;;;;;;;18.35;15.18;;;;;;;20.09;19.74;99806.69;5114678;28;20404;-59
2022/12/13 09:25:22;;;;;;;17.02;15.05;;;;;;;19.91;20.79;99808.59;5114271;28;20048;-59
2022/12/13 09:27:49;;;;;;;17.38;15.68;;;;;;;20.22;20.64;99795.84;5113648;28;20048;-59
2022/12/13 09:30:16;;;;;;;16.88;14.65;;;;;;;20.41;20.16;99791.88;5111691;28;20483;-59
2022/12/13 09:32:48;;;;;;;17.20;14.48;;;;;;;20.49;20.00;99793.53;5111352;28;20540;-61
2022/12/13 09:35:17;;;;;;;17.23;14.60;;;;;;;21.12;19.34;99790.47;5111544;28;20048;-59
2022/12/13 09:37:45;;;;;;;17.10;15.40;;;;;;;20.99;19.57;99782.34;5105000;28;20044;-59
2022/12/13 09:40:20;;;;;;;17.30;14.80;;;;;;;21.01;19.50;99779.13;5082603;28;20060;-58
2022/12/13 09:42:51;;;;;;;18.00;15.73;;;;;;;21.32;20.01;99791.69;5073403;28;20048;-59
2022/12/13 09:45:18;;;;;;;18.58;16.08;;;;;;;21.53;19.23;99787.28;5073244;28;20079;-59
2022/12/13 09:47:48;;;;;;;19.17;16.73;;;;;;;21.29;19.39;99789.66;5073331;28;20057;-59
2022/12/13 09:50:25;;;;;;;19.15;17.13;;;;;;;18.84;20.46;99795.19;5089167;28;20048;-59
2022/12/13 09:52:53;;;;;;;19.23;17.30;;;;;;;16.85;23.31;99803.94;5093199;28;20048;-59
2022/12/13 09:55:23;;;;;;;19.02;17.00;;;;;;;14.89;25.53;99807.50;5093336;28;20072;-59
2022/12/13 09:57:50;;;;;;;;;;;;;;;12.54;27.98;99802.53;5094365;28;20071;-60
2022/12/13 10:00:20;;;;;;;24.60;20.77;;;;;;;12.43;28.66;99802.16;5093528;28;19920;-58
2022/12/13 10:02:50;;;;;;;23.58;18.58;;;;;;;11.16;30.15;99805.94;5093372;28;20408;-58
2022/12/13 10:05:25;;;;;;;;;;;;;;;10.27;31.05;99805.66;5093430;28;20048;-59
2022/12/13 10:07:55;;;;;;;25.42;21.52;;;;;;;9.65;32.32;99806.78;5093066;28;19927;-59
2022/12/13 10:10:22;;;;;;;29.13;21.75;;;;;;;8.72;34.48;99805.81;5093105;28;20052;-61
2022/12/13 10:12:55;;;;;;;27.75;21.73;;;;;;;7.80;35.28;99811.63;5092680;28;20044;-62
2022/12/13 10:15:24;;;;;;;29.55;21.70;;;;;;;7.10;37.32;99805.34;5092648;28;20056;-61
2022/12/13 10:17:52;;;;;;;26.57;20.87;;;;;;;8.05;35.24;99804.66;5090257;28;20115;-61
2022/12/13 10:20:24;;;;;;;23.63;17.80;;;;;;;11.18;31.45;99792.50;5090838;28;20544;-59
2022/12/13 10:22:51;;;;;;;26.77;19.67;;;;;;;13.17;28.57;99779.94;5091164;28;20056;-59
2022/12/13 10:25:44;;;;;;;25.10;20.23;;;;;;;15.12;27.09;99776.84;5092559;28;20055;-59
2022/12/13 10:28:12;;;;;;;21.85;17.20;;;;;;;16.62;25.13;99767.31;5093074;28;20477;-61
2022/12/13 10:30:41;;;;;;;22.85;19.17;;;;;;;17.56;24.46;99766.94;5092374;28;20048;-60
2022/12/13 10:33:18;;;;;;;;;;;;;;;17.84;23.66;99769.38;5093414;28;20480;-59
2022/12/13 10:36:04;;;;;;;21.52;17.77;;;;;;;18.65;23.05;99763.13;5092489;28;19920;-60
2022/12/13 10:38:35;;;;;;;19.48;17.10;;;;;;;19.16;22.43;99769.28;5091710;28;20052;-61
2022/12/13 10:41:02;;;;;;;21.30;18.38;;;;;;;20.22;21.20;99761.91;5105437;28;20385;-60
2022/12/13 10:43:30;;;;;;;24.45;21.60;;;;;;;20.80;21.07;99751.59;5112753;28;20047;-61
2022/12/13 10:46:00;;;;;;;27.02;21.10;;;;;;;21.35;20.63;99747.59;5106510;28;20058;-61
2022/12/13 10:48:35;;;;;;;21.90;18.92;;;;;;;21.18;20.27;99740.72;5092418;28;20047;-61
2022/12/13 10:51:06;;;;;;;24.38;21.13;;;;;;;21.42;20.24;99736.28;5091639;28;20055;-61
2022/12/13 10:53:35;;;;;;;22.00;19.55;;;;;;;21.69;20.26;99742.28;5072028;28;20045;-64
2022/12/13 10:56:04;;;;;;;23.42;20.92;;;;;;;21.67;20.54;99736.22;5072412;28;20059;-63
2022/12/13 10:58:36;;;;;;;23.17;20.88;;;;;;;22.33;19.75;99727.13;5072292;28;20480;-63
2022/12/13 11:01:20;;;;;;;24.75;19.67;;;;;;;22.65;19.01;99726.91;5072053;28;20056;-62
2022/12/13 11:03:58;;;;;;;22.10;19.77;;;;;;;22.38;19.17;99718.16;5071701;28;20052;-62
2022/12/13 11:06:27;;;;;;;24.75;21.67;;;;;;;22.00;19.49;99714.25;5092172;28;20054;-63
2022/12/13 11:08:55;;;;;;;22.20;19.80;;;;;;;21.93;20.12;99709.44;5104475;28;20519;-63
2022/12/13 11:11:29;;;;;;;20.10;18.13;;;;;;;22.05;19.48;99711.00;5092162;28;20408;-63
2022/12/13 11:14:00;;;;;;;18.80;16.75;;;;;;;20.45;21.41;99708.66;5091871;28;20123;-62
2022/12/13 11:16:31;;;;;;;32.88;28.17;;;;;;;19.01;22.41;99707.06;5092361;28;20052;-63
2022/12/13 11:19:02;;;;;;;23.52;21.15;;;;;;;18.64;22.56;99695.81;5092267;28;20052;-63
2022/12/13 11:21:33;;;;;;;33.70;29.45;;;;;;;18.45;23.11;99692.00;5091463;28;20400;-62
2022/12/13 11:24:03;;;;;;;21.90;19.52;;;;;;;17.96;23.48;99693.06;5091560;28;20052;-63
2022/12/13 11:26:33;;;;;;;26.02;23.55;;;;;;;18.14;23.78;99686.81;5099218;28;20059;-63
2022/12/13 11:29:25;;;;;;;25.25;22.92;;;;;;;18.08;23.54;99692.00;5109098;28;20052;-62
2022/12/13 11:32:00;;;;;;;36.95;30.67;;;;;;;17.76;23.81;99689.53;5112128;28;20058;-63
2022/12/13 11:34:39;;;;;;;40.35;36.88;;;;;;;17.73;23.77;99687.50;5112330;28;20048;-62
2022/12/13 11:37:21;;;;;;;1999.90;999.90;;;;;;;18.42;23.86;99694.78;5112111;28;20058;-62